createdAt,value
2022-10-14T00:30:14.702Z,1006.51
2022-10-14T00:30:55.239Z,1006.51
2022-10-14T00:31:35.770Z,1006.48
2022-10-14T00:32:16.185Z,1006.52
2022-10-14T00:32:56.696Z,1006.55
2022-10-14T00:33:37.163Z,1006.55
2022-10-14T00:34:17.694Z,1006.57
2022-10-14T00:34:58.216Z,1006.52
2022-10-14T00:35:38.652Z,1006.56
2022-10-14T00:36:19.082Z,1006.56
2022-10-14T00:36:59.589Z,1006.56
2022-10-14T00:37:40.086Z,1006.56
2022-10-14T00:38:20.525Z,1006.57
2022-10-14T00:39:01.049Z,1006.54
2022-10-14T00:39:41.467Z,1006.5
2022-10-14T00:40:21.945Z,1006.54
2022-10-14T00:41:02.356Z,1006.55
2022-10-14T00:41:42.826Z,1006.53
2022-10-14T00:42:23.355Z,1006.5
2022-10-14T00:43:03.906Z,1006.51
2022-10-14T00:43:44.357Z,1006.51
2022-10-14T00:44:24.824Z,1006.5
2022-10-14T00:45:05.305Z,1006.5
2022-10-14T00:45:45.727Z,1006.51
2022-10-14T00:46:26.189Z,1006.48
2022-10-14T00:47:06.700Z,1006.54
2022-10-14T00:47:47.188Z,1006.51
2022-10-14T00:48:27.696Z,1006.52
2022-10-14T00:49:08.116Z,1006.46
2022-10-14T00:49:48.628Z,1006.48
2022-10-14T00:50:29.129Z,1006.47
2022-10-14T00:51:09.621Z,1006.51
2022-10-14T00:51:50.060Z,1006.51
2022-10-14T00:52:30.490Z,1006.51
2022-10-14T00:53:11.059Z,1006.47
2022-10-14T00:53:51.424Z,1006.49
2022-10-14T00:54:31.907Z,1006.48
2022-10-14T00:55:12.389Z,1006.47
2022-10-14T00:55:52.834Z,1006.45
2022-10-14T00:56:33.352Z,1006.45
2022-10-14T00:57:13.799Z,1006.43
2022-10-14T00:57:54.327Z,1006.49
2022-10-14T00:58:34.769Z,1006.46
2022-10-14T00:59:55.688Z,1006.44
2022-10-14T01:00:36.184Z,1006.45
2022-10-14T01:01:16.723Z,1006.4
2022-10-14T01:01:57.228Z,1006.43
2022-10-14T01:02:37.677Z,1006.46
2022-10-14T01:03:18.147Z,1006.47
2022-10-14T01:03:58.636Z,1006.46
2022-10-14T01:04:39.096Z,1006.45
2022-10-14T01:05:19.565Z,1006.48
2022-10-14T01:06:00.035Z,1006.45
2022-10-14T01:06:40.485Z,1006.45
2022-10-14T01:07:21.300Z,1006.46
2022-10-14T01:08:01.469Z,1006.44
2022-10-14T01:08:41.908Z,1006.46
2022-10-14T01:09:22.426Z,1006.42
2022-10-14T01:10:02.881Z,1006.43
2022-10-14T01:10:43.362Z,1006.4
2022-10-14T01:11:23.806Z,1006.41
2022-10-14T01:12:27.332Z,1006.4
2022-10-14T01:12:44.792Z,1006.39
2022-10-14T01:13:25.306Z,1006.38
2022-10-14T01:14:05.792Z,1006.38
2022-10-14T01:14:46.252Z,1006.34
2022-10-14T01:15:26.734Z,1006.33
2022-10-14T01:16:07.206Z,1006.33
2022-10-14T01:19:22.421Z,1006.31
2022-10-14T01:20:07.535Z,1006.3
2022-10-14T01:20:48.009Z,1006.29
2022-10-14T01:21:28.444Z,1006.27
2022-10-14T01:22:08.902Z,1006.29
2022-10-14T01:22:49.390Z,1006.26
2022-10-14T01:23:29.854Z,1006.27
2022-10-14T01:24:10.365Z,1006.24
2022-10-14T01:24:50.922Z,1006.23
2022-10-14T01:25:31.333Z,1006.24
2022-10-14T01:26:11.800Z,1006.2
2022-10-14T01:26:52.263Z,1006.16
2022-10-14T01:27:32.689Z,1006.12
2022-10-14T01:28:13.167Z,1006.15
2022-10-14T01:28:53.632Z,1006.09
2022-10-14T01:29:34.128Z,1006.08
2022-10-14T01:30:14.606Z,1006.11
2022-10-14T01:30:55.086Z,1006.13
2022-10-14T01:31:35.651Z,1006.08
2022-10-14T01:32:16.120Z,1006.1
2022-10-14T01:32:56.563Z,1006.03
2022-10-14T01:33:37.056Z,1006.01
2022-10-14T01:34:17.517Z,1006.02
2022-10-14T01:34:58.073Z,1005.97
2022-10-14T01:35:38.520Z,1005.98
2022-10-14T01:36:18.967Z,1005.97
2022-10-14T01:36:59.487Z,1005.93
2022-10-14T01:37:39.935Z,1005.88
2022-10-14T01:38:20.432Z,1005.9
2022-10-14T01:39:00.918Z,1005.92
2022-10-14T01:39:41.344Z,1005.9
2022-10-14T01:40:21.843Z,1005.92
2022-10-14T01:41:02.296Z,1005.91
2022-10-14T01:41:42.837Z,1005.91
2022-10-14T01:42:23.628Z,1005.88
2022-10-14T01:43:03.822Z,1005.89
2022-10-14T01:43:44.263Z,1005.85
2022-10-14T01:44:24.718Z,1005.85
2022-10-14T01:45:05.195Z,1005.85
2022-10-14T01:45:45.713Z,1005.81
2022-10-14T01:46:26.205Z,1005.85
2022-10-14T01:47:06.677Z,1005.82
2022-10-14T01:47:47.137Z,1005.84
2022-10-14T01:48:27.627Z,1005.8
2022-10-14T01:49:48.507Z,1005.8
2022-10-14T01:50:29.010Z,1005.8
2022-10-14T01:51:09.489Z,1005.74
2022-10-14T01:51:49.876Z,1005.78
2022-10-14T01:52:30.359Z,1005.79
2022-10-14T01:53:10.786Z,1005.77
2022-10-14T01:53:51.228Z,1005.81
2022-10-14T01:54:31.744Z,1005.8
2022-10-14T01:55:12.167Z,1005.74
2022-10-14T01:55:52.648Z,1005.74
2022-10-14T01:56:35.947Z,1005.71
2022-10-14T01:57:13.648Z,1005.72
2022-10-14T01:57:54.101Z,1005.75
2022-10-14T01:58:34.554Z,1005.71
2022-10-14T01:59:55.569Z,1005.74
2022-10-14T02:00:35.954Z,1005.73
2022-10-14T02:01:16.494Z,1005.72
2022-10-14T02:01:56.896Z,1005.68
2022-10-14T02:02:37.337Z,1005.66
2022-10-14T02:03:17.786Z,1005.64
2022-10-14T02:03:58.305Z,1005.63
2022-10-14T02:04:38.761Z,1005.63
2022-10-14T02:05:19.202Z,1005.64
2022-10-14T02:05:59.732Z,1005.68
2022-10-14T02:06:40.130Z,1005.65
2022-10-14T02:07:20.559Z,1005.63
2022-10-14T02:08:01.000Z,1005.66
2022-10-14T02:08:41.467Z,1005.6
2022-10-14T02:09:21.974Z,1005.68
2022-10-14T02:10:02.456Z,1005.6
2022-10-14T02:10:42.883Z,1005.62
2022-10-14T02:11:23.355Z,1005.57
2022-10-14T02:12:03.773Z,1005.56
2022-10-14T02:12:44.283Z,1005.56
2022-10-14T02:13:24.720Z,1005.56
2022-10-14T02:14:05.183Z,1005.54
2022-10-14T02:14:45.726Z,1005.54
2022-10-14T02:15:26.257Z,1005.51
2022-10-14T02:16:06.725Z,1005.55
2022-10-14T02:16:47.518Z,1005.52
2022-10-14T02:17:27.954Z,1005.47
2022-10-14T02:18:08.415Z,1005.5
2022-10-14T02:18:48.870Z,1005.51
2022-10-14T02:19:29.319Z,1005.53
2022-10-14T02:20:09.793Z,1005.49
2022-10-14T02:20:50.252Z,1005.45
2022-10-14T02:21:30.769Z,1005.51
2022-10-14T02:22:11.150Z,1005.52
2022-10-14T02:22:51.618Z,1005.47
2022-10-14T02:23:32.103Z,1005.51
2022-10-14T02:24:12.704Z,1005.48
2022-10-14T02:24:53.147Z,1005.53
2022-10-14T02:26:14.100Z,1005.48
2022-10-14T02:26:54.567Z,1005.47
2022-10-14T02:27:35.029Z,1005.49
2022-10-14T02:28:15.531Z,1005.44
2022-10-14T02:28:56.015Z,1005.44
2022-10-14T02:29:36.470Z,1005.47
2022-10-14T02:30:16.932Z,1005.46
2022-10-14T02:30:57.528Z,1005.5
2022-10-14T02:31:37.927Z,1005.48
2022-10-14T02:32:18.594Z,1005.48
2022-10-14T02:32:58.899Z,1005.56
2022-10-14T02:33:39.352Z,1005.5
2022-10-14T02:34:19.818Z,1005.5
2022-10-14T02:35:00.302Z,1005.49
2022-10-14T02:35:40.770Z,1005.53
2022-10-14T02:36:21.189Z,1005.51
2022-10-14T02:37:01.678Z,1005.53
2022-10-14T02:37:42.145Z,1005.52
2022-10-14T02:38:22.626Z,1005.49
2022-10-14T02:39:03.082Z,1005.47
2022-10-14T02:39:43.538Z,1005.47
2022-10-14T02:40:24.003Z,1005.5
2022-10-14T02:41:04.447Z,1005.48
2022-10-14T02:41:44.907Z,1005.48
2022-10-14T02:42:25.467Z,1005.47
2022-10-14T02:43:05.959Z,1005.46
2022-10-14T02:43:46.427Z,1005.46
2022-10-14T02:44:26.890Z,1005.43
2022-10-14T02:45:07.380Z,1005.45
2022-10-14T02:46:28.784Z,1005.4
2022-10-14T02:47:09.287Z,1005.4
2022-10-14T02:47:49.745Z,1005.38
2022-10-14T02:48:30.222Z,1005.39
2022-10-14T02:49:10.673Z,1005.38
2022-10-14T02:49:51.140Z,1005.35
2022-10-14T02:50:31.593Z,1005.32
2022-10-14T02:51:12.083Z,1005.32
2022-10-14T02:51:52.559Z,1005.32
2022-10-14T02:52:33.041Z,1005.32
2022-10-14T02:53:53.950Z,1005.29
2022-10-14T02:54:34.402Z,1005.3
2022-10-14T02:55:14.860Z,1005.29
2022-10-14T02:55:55.335Z,1005.29
2022-10-14T02:56:35.832Z,1005.29
2022-10-14T02:57:16.246Z,1005.27
2022-10-14T02:57:56.764Z,1005.26
2022-10-14T02:58:37.183Z,1005.24
2022-10-14T02:59:17.660Z,1005.23
2022-10-14T02:59:58.208Z,1005.27
2022-10-14T03:00:38.663Z,1005.26
2022-10-14T03:01:19.177Z,1005.23
2022-10-14T03:01:59.644Z,1005.23
2022-10-14T03:02:40.051Z,1005.25
2022-10-14T03:03:20.523Z,1005.23
2022-10-14T03:04:00.994Z,1005.21
2022-10-14T03:04:41.475Z,1005.24
2022-10-14T03:05:21.934Z,1005.25
2022-10-14T03:06:02.434Z,1005.23
2022-10-14T03:06:42.904Z,1005.23
2022-10-14T03:07:23.357Z,1005.23
2022-10-14T03:08:03.814Z,1005.22
2022-10-14T03:08:44.284Z,1005.22
2022-10-14T03:09:24.762Z,1005.28
2022-10-14T03:10:05.212Z,1005.24
2022-10-14T03:11:26.249Z,1005.28
2022-10-14T03:12:06.706Z,1005.25
2022-10-14T03:12:47.273Z,1005.25
2022-10-14T03:13:27.717Z,1005.25
2022-10-14T03:14:08.161Z,1005.23
2022-10-14T03:14:48.638Z,1005.22
2022-10-14T03:15:29.111Z,1005.24
2022-10-14T03:16:09.562Z,1005.23
2022-10-14T03:16:50.004Z,1005.23
2022-10-14T03:17:30.487Z,1005.22
2022-10-14T03:18:10.962Z,1005.2
2022-10-14T03:18:51.433Z,1005.22
2022-10-14T03:19:31.927Z,1005.2
2022-10-14T03:20:12.362Z,1005.2
2022-10-14T03:20:52.804Z,1005.16
2022-10-14T03:21:33.288Z,1005.16
2022-10-14T03:22:13.731Z,1005.14
2022-10-14T03:22:54.208Z,1005.16
2022-10-14T03:23:34.733Z,1005.15
2022-10-14T03:24:15.170Z,1005.15
2022-10-14T03:24:55.655Z,1005.16
2022-10-14T03:25:36.109Z,1005.11
2022-10-14T03:26:16.548Z,1005.11
2022-10-14T03:26:57.033Z,1005.1
2022-10-14T03:27:37.525Z,1005.12
2022-10-14T03:28:18.965Z,1005.11
2022-10-14T03:28:58.504Z,1005.08
2022-10-14T03:29:38.928Z,1005.11
2022-10-14T03:30:19.366Z,1005.11
2022-10-14T03:30:59.906Z,1005.06
2022-10-14T03:31:40.301Z,1005.09
2022-10-14T03:32:21.034Z,1005.09
2022-10-14T03:33:01.276Z,1005.11
2022-10-14T03:33:41.754Z,1005.08
2022-10-14T03:34:22.189Z,1005.08
2022-10-14T03:35:02.631Z,1005.07
2022-10-14T03:35:43.103Z,1005.09
2022-10-14T03:36:23.522Z,1005.08
2022-10-14T03:37:04.019Z,1005.09
2022-10-14T03:37:44.431Z,1005.07
2022-10-14T03:38:24.878Z,1005.05
2022-10-14T03:39:05.361Z,1005.06
2022-10-14T03:39:45.805Z,1005.03
2022-10-14T03:40:26.275Z,1005.03
2022-10-14T03:41:06.757Z,1005.01
2022-10-14T03:41:47.202Z,1004.99
2022-10-14T03:42:27.666Z,1004.98
2022-10-14T03:43:08.121Z,1004.95
2022-10-14T03:43:48.577Z,1004.95
2022-10-14T03:44:29.026Z,1004.92
2022-10-14T03:45:09.489Z,1004.9
2022-10-14T03:45:49.943Z,1004.93
2022-10-14T03:46:30.411Z,1004.93
2022-10-14T03:47:10.893Z,1004.92
2022-10-14T03:47:51.367Z,1004.95
2022-10-14T03:48:31.832Z,1004.93
2022-10-14T03:49:12.300Z,1004.96
2022-10-14T03:49:52.767Z,1004.93
2022-10-14T03:50:33.288Z,1004.96
2022-10-14T03:51:13.771Z,1004.92
2022-10-14T03:51:54.216Z,1004.96
2022-10-14T03:52:34.678Z,1004.93
2022-10-14T03:53:15.139Z,1004.94
2022-10-14T03:53:55.597Z,1004.91
2022-10-14T03:54:36.063Z,1004.87
2022-10-14T03:55:16.579Z,1004.92
2022-10-14T03:55:56.974Z,1004.91
2022-10-14T03:56:37.429Z,1004.87
2022-10-14T03:57:17.888Z,1004.87
2022-10-14T03:57:58.444Z,1004.91
2022-10-14T03:58:39.062Z,1004.9
2022-10-14T03:59:19.634Z,1004.93
2022-10-14T04:02:38.971Z,1004.89
2022-10-14T04:03:20.568Z,1004.89
2022-10-14T04:04:01.139Z,1004.9
2022-10-14T04:04:41.519Z,1004.9
2022-10-14T04:05:21.984Z,1004.84
2022-10-14T04:06:02.439Z,1004.89
2022-10-14T04:06:42.955Z,1004.89
2022-10-14T04:07:23.361Z,1004.87
2022-10-14T04:08:03.888Z,1004.89
2022-10-14T04:08:44.294Z,1004.87
2022-10-14T04:09:24.742Z,1004.88
2022-10-14T04:10:05.303Z,1004.82
2022-10-14T04:11:26.192Z,1004.84
2022-10-14T04:12:06.707Z,1004.85
2022-10-14T04:12:47.117Z,1004.85
2022-10-14T04:13:27.590Z,1004.89
2022-10-14T04:14:08.073Z,1004.91
2022-10-14T04:14:49.004Z,1004.87
2022-10-14T04:15:29.753Z,1004.89
2022-10-14T04:16:10.350Z,1004.87
2022-10-14T04:16:51.144Z,1004.89
2022-10-14T04:17:32.417Z,1004.89
2022-10-14T04:18:12.697Z,1004.88
2022-10-14T04:18:53.276Z,1004.92
2022-10-14T04:19:33.657Z,1004.86
2022-10-14T04:20:14.185Z,1004.87
2022-10-14T04:20:54.614Z,1004.88
2022-10-14T04:21:35.280Z,1004.89
2022-10-14T04:22:15.939Z,1004.88
2022-10-14T04:22:56.570Z,1004.89
2022-10-14T04:23:37.800Z,1004.88
2022-10-14T04:24:18.274Z,1004.88
2022-10-14T04:24:58.971Z,1004.88
2022-10-14T04:25:40.014Z,1004.87
2022-10-14T04:26:20.541Z,1004.84
2022-10-14T04:27:01.069Z,1004.82
2022-10-14T04:27:41.502Z,1004.85
2022-10-14T04:29:02.924Z,1004.87
2022-10-14T04:29:43.707Z,1004.86
2022-10-14T04:30:24.304Z,1004.86
2022-10-14T04:31:05.406Z,1004.87
2022-10-14T04:31:45.858Z,1004.87
2022-10-14T04:32:26.588Z,1004.88
2022-10-14T04:33:08.021Z,1004.85
2022-10-14T04:33:48.061Z,1004.87
2022-10-14T04:34:28.629Z,1004.84
2022-10-14T04:35:09.306Z,1004.85
2022-10-14T04:36:31.015Z,1004.85
2022-10-14T04:37:11.202Z,1004.85
2022-10-14T04:37:52.311Z,1004.82
2022-10-14T04:38:32.584Z,1004.84
2022-10-14T04:39:13.147Z,1004.83
2022-10-14T04:39:53.594Z,1004.83
2022-10-14T04:40:34.285Z,1004.83
2022-10-14T04:41:14.904Z,1004.81
2022-10-14T04:41:55.279Z,1004.81
2022-10-14T04:42:36.794Z,1004.79
2022-10-14T04:43:18.517Z,1004.81
2022-10-14T04:43:58.169Z,1004.78
2022-10-14T04:44:38.911Z,1004.79
2022-10-14T04:45:19.518Z,1004.8
2022-10-14T04:46:00.146Z,1004.78
2022-10-14T04:46:40.625Z,1004.79
2022-10-14T04:47:21.107Z,1004.77
2022-10-14T04:48:01.606Z,1004.78
2022-10-14T04:48:42.065Z,1004.77
2022-10-14T04:49:23.154Z,1004.76
2022-10-14T04:50:03.222Z,1004.77
2022-10-14T04:50:43.735Z,1004.75
2022-10-14T04:51:24.228Z,1004.71
2022-10-14T04:52:04.683Z,1004.68
2022-10-14T04:52:45.135Z,1004.68
2022-10-14T04:54:06.166Z,1004.69
2022-10-14T04:54:46.556Z,1004.64
2022-10-14T04:55:27.020Z,1004.66
2022-10-14T04:56:07.618Z,1004.67
2022-10-14T04:56:47.982Z,1004.63
2022-10-14T04:57:28.477Z,1004.66
2022-10-14T04:58:08.902Z,1004.63
2022-10-14T04:58:49.386Z,1004.63
2022-10-14T04:59:29.841Z,1004.59
2022-10-14T05:00:10.316Z,1004.58
2022-10-14T05:00:50.768Z,1004.6
2022-10-14T05:01:33.869Z,1004.59
2022-10-14T05:02:11.755Z,1004.61
2022-10-14T05:02:52.256Z,1004.61
2022-10-14T05:03:32.716Z,1004.6
2022-10-14T05:04:13.282Z,1004.59
2022-10-14T05:04:53.682Z,1004.58
2022-10-14T05:05:34.151Z,1004.58
2022-10-14T05:06:14.631Z,1004.55
2022-10-14T05:06:55.112Z,1004.56
2022-10-14T05:07:35.593Z,1004.55
2022-10-14T05:08:16.054Z,1004.51
2022-10-14T05:08:56.520Z,1004.5
2022-10-14T05:09:37.034Z,1004.42
2022-10-14T05:10:17.536Z,1004.43
2022-10-14T05:10:57.962Z,1004.42
2022-10-14T05:11:38.469Z,1004.38
2022-10-14T05:12:19.223Z,1004.39
2022-10-14T05:12:59.430Z,1004.4
2022-10-14T05:14:20.404Z,1004.37
2022-10-14T05:15:01.022Z,1004.36
2022-10-14T05:15:41.387Z,1004.39
2022-10-14T05:16:21.834Z,1004.36
2022-10-14T05:17:02.294Z,1004.36
2022-10-14T05:17:42.797Z,1004.37
2022-10-14T05:18:23.270Z,1004.38
2022-10-14T05:21:45.746Z,1004.33
2022-10-14T05:22:27.198Z,1004.36
2022-10-14T05:23:07.853Z,1004.36
2022-10-14T05:23:48.236Z,1004.35
2022-10-14T05:24:28.714Z,1004.35
2022-10-14T05:25:09.350Z,1004.38
2022-10-14T05:25:49.748Z,1004.37
2022-10-14T05:26:30.238Z,1004.35
2022-10-14T05:27:10.662Z,1004.35
2022-10-14T05:27:51.227Z,1004.32
2022-10-14T05:28:32.483Z,1004.34
2022-10-14T05:29:13.053Z,1004.31
2022-10-14T05:29:53.572Z,1004.3
2022-10-14T05:30:34.951Z,1004.32
2022-10-14T05:31:55.156Z,1004.3
2022-10-14T05:32:35.639Z,1004.31
2022-10-14T05:33:16.098Z,1004.33
2022-10-14T05:33:56.575Z,1004.34
2022-10-14T05:34:37.031Z,1004.32
2022-10-14T05:35:25.435Z,1004.32
2022-10-14T05:35:59.563Z,1004.31
2022-10-14T05:36:38.808Z,1004.31
2022-10-14T05:37:19.288Z,1004.32
2022-10-14T05:38:04.001Z,1004.33
2022-10-14T05:38:40.278Z,1004.35
2022-10-14T05:39:21.789Z,1004.29
2022-10-14T05:40:02.852Z,1004.35
2022-10-14T05:40:44.084Z,1004.33
2022-10-14T05:42:12.240Z,1004.33
2022-10-14T05:45:00.801Z,1004.32
2022-10-14T05:45:44.602Z,1004.32
2022-10-14T05:46:25.029Z,1004.32
2022-10-14T05:47:05.510Z,1004.33
2022-10-14T05:47:46.012Z,1004.33
2022-10-14T05:48:26.485Z,1004.36
2022-10-14T05:49:06.970Z,1004.34
2022-10-14T05:49:47.426Z,1004.35
2022-10-14T05:50:27.959Z,1004.31
2022-10-14T05:51:08.422Z,1004.33
2022-10-14T05:51:48.903Z,1004.33
2022-10-14T05:52:33.451Z,1004.31
2022-10-14T06:36:13.091Z,1003.97
2022-10-14T06:36:55.663Z,1003.99
2022-10-14T06:37:34.857Z,1004.01
2022-10-14T06:38:16.014Z,1004.03
2022-10-14T06:38:57.749Z,1003.97
2022-10-14T06:39:38.808Z,1003.95
2022-10-14T06:40:19.874Z,1003.98
2022-10-14T06:41:01.013Z,1003.99
2022-10-14T06:41:41.874Z,1003.99
2022-10-14T06:42:23.285Z,1004.02
2022-10-14T06:43:03.981Z,1003.99
2022-10-14T06:44:28.178Z,1004.01
2022-10-14T06:45:10.006Z,1004.01
2022-10-14T06:45:51.017Z,1003.96
2022-10-14T06:46:34.852Z,1003.96
2022-10-14T06:47:17.174Z,1004
2022-10-14T06:47:58.242Z,1003.94
2022-10-14T06:48:40.383Z,1003.97
2022-10-14T06:49:20.637Z,1003.97
2022-10-14T06:50:02.093Z,1003.95
2022-10-14T06:50:43.397Z,1003.94
2022-10-14T06:52:05.798Z,1003.92
2022-10-14T06:52:46.881Z,1003.9
2022-10-14T06:53:27.874Z,1003.86
2022-10-14T06:54:08.750Z,1003.88
2022-10-14T06:57:40.536Z,1003.9
2022-10-14T07:01:32.436Z,1003.91
2022-10-14T07:02:12.932Z,1003.88
2022-10-14T07:02:53.579Z,1003.93
2022-10-14T07:03:34.363Z,1003.91
2022-10-14T07:04:15.125Z,1003.86
2022-10-14T07:04:56.042Z,1003.86
2022-10-14T07:05:36.576Z,1003.84
2022-10-14T07:06:17.002Z,1003.85
2022-10-14T07:06:57.663Z,1003.84
2022-10-14T07:07:38.214Z,1003.84
2022-10-14T07:08:18.995Z,1003.82
2022-10-14T07:09:00.668Z,1003.81
2022-10-14T07:09:41.100Z,1003.79
2022-10-14T07:10:21.679Z,1003.76
2022-10-14T07:11:02.196Z,1003.8
2022-10-14T07:11:42.804Z,1003.81
2022-10-14T07:12:23.679Z,1003.76
2022-10-14T07:13:04.025Z,1003.78
2022-10-14T07:24:55.550Z,1003.66
2022-10-14T07:25:35.711Z,1003.69
2022-10-14T07:26:16.230Z,1003.66
2022-10-14T07:26:57.038Z,1003.64
2022-10-14T07:27:37.505Z,1003.69
2022-10-14T07:28:18.770Z,1003.68
2022-10-14T07:31:53.603Z,1003.67
2022-10-14T07:32:34.465Z,1003.68
2022-10-14T07:33:15.219Z,1003.67
2022-10-14T07:33:55.651Z,1003.7
2022-10-14T07:36:55.547Z,1003.71
2022-10-14T07:37:36.209Z,1003.73
2022-10-14T07:38:17.041Z,1003.72
2022-10-14T07:38:57.792Z,1003.74
2022-10-14T07:39:38.285Z,1003.77
2022-10-14T07:40:18.955Z,1003.74
2022-10-14T07:41:00.561Z,1003.74
2022-10-14T07:41:41.228Z,1003.78
2022-10-14T07:42:22.030Z,1003.77
2022-10-14T07:43:03.189Z,1003.8
2022-10-14T07:45:19.498Z,1003.72
2022-10-14T07:45:59.642Z,1003.75
2022-10-14T07:46:40.163Z,1003.72
2022-10-14T07:47:20.946Z,1003.7
2022-10-14T07:48:56.480Z,1003.67
2022-10-14T07:49:22.754Z,1003.7
2022-10-14T07:50:03.279Z,1003.67
2022-10-14T07:50:43.837Z,1003.68
2022-10-14T07:51:24.609Z,1003.66
2022-10-14T07:52:05.145Z,1003.7
2022-10-14T07:52:45.639Z,1003.71
2022-10-14T07:53:26.358Z,1003.69
2022-10-14T07:54:06.822Z,1003.66
2022-10-14T07:54:47.628Z,1003.63
2022-10-14T07:55:28.242Z,1003.66
2022-10-14T07:56:09.645Z,1003.62
2022-10-14T07:56:52.085Z,1003.69
2022-10-14T07:57:35.523Z,1003.67
2022-10-14T07:58:15.250Z,1003.64
2022-10-14T07:58:55.916Z,1003.66
2022-10-14T07:59:36.711Z,1003.65
2022-10-14T08:00:17.295Z,1003.68
2022-10-14T08:00:57.840Z,1003.72
2022-10-14T08:01:38.344Z,1003.64
2022-10-14T08:02:18.854Z,1003.64
2022-10-14T08:02:59.196Z,1003.64
2022-10-14T08:03:39.677Z,1003.6
2022-10-14T08:04:20.267Z,1003.66
2022-10-14T08:05:41.300Z,1003.64
2022-10-14T08:06:21.778Z,1003.67
2022-10-14T08:07:02.309Z,1003.66
2022-10-14T08:07:42.889Z,1003.67
2022-10-14T08:08:23.386Z,1003.64
2022-10-14T08:09:03.889Z,1003.67
2022-10-14T08:09:44.443Z,1003.65
2022-10-14T08:10:25.000Z,1003.65
2022-10-14T08:11:05.612Z,1003.63
2022-10-14T08:11:46.062Z,1003.61
2022-10-14T08:12:26.583Z,1003.65
2022-10-14T08:13:07.110Z,1003.64
2022-10-14T08:13:47.643Z,1003.67
2022-10-14T08:15:08.681Z,1003.63
2022-10-14T08:15:49.280Z,1003.65
2022-10-14T08:16:29.786Z,1003.64
2022-10-14T08:17:50.847Z,1003.69
2022-10-14T08:18:31.437Z,1003.7
2022-10-14T08:19:14.364Z,1003.69
2022-10-14T08:19:52.737Z,1003.68
2022-10-14T08:20:33.243Z,1003.72
2022-10-14T08:21:13.723Z,1003.62
2022-10-14T08:21:54.322Z,1003.64
2022-10-14T08:22:34.994Z,1003.61
2022-10-14T08:23:17.439Z,1003.6
2022-10-14T08:23:55.949Z,1003.61
2022-10-14T08:24:36.531Z,1003.59
2022-10-14T08:25:17.267Z,1003.59
2022-10-14T08:25:57.787Z,1003.61
2022-10-14T08:26:38.559Z,1003.59
2022-10-14T08:27:19.052Z,1003.57
2022-10-14T08:27:59.799Z,1003.59
2022-10-14T08:28:40.166Z,1003.62
2022-10-14T08:29:20.606Z,1003.63
2022-10-14T08:30:01.178Z,1003.57
2022-10-14T08:30:42.599Z,1003.58
2022-10-14T08:31:23.179Z,1003.58
2022-10-14T08:32:03.670Z,1003.56
2022-10-14T08:32:44.144Z,1003.54
2022-10-14T08:33:24.865Z,1003.49
2022-10-14T08:34:05.274Z,1003.48
2022-10-14T08:34:45.746Z,1003.54
2022-10-14T08:35:26.310Z,1003.51
2022-10-14T08:36:06.923Z,1003.51
2022-10-14T08:36:47.730Z,1003.52
2022-10-14T08:37:29.291Z,1003.48
2022-10-14T08:38:09.846Z,1003.48
2022-10-14T08:38:50.404Z,1003.48
2022-10-14T08:39:31.836Z,1003.52
2022-10-14T08:40:12.248Z,1003.49
2022-10-14T08:40:54.792Z,1003.44
2022-10-14T08:41:33.276Z,1003.44
2022-10-14T08:42:14.046Z,1003.42
2022-10-14T08:42:54.713Z,1003.47
2022-10-14T08:43:35.294Z,1003.42
2022-10-14T08:44:16.975Z,1003.42
2022-10-14T08:44:57.731Z,1003.46
2022-10-14T08:45:38.921Z,1003.42
2022-10-14T08:46:19.437Z,1003.43
2022-10-14T08:47:00.110Z,1003.38
2022-10-14T08:47:41.406Z,1003.36
2022-10-14T08:48:22.186Z,1003.37
2022-10-14T08:49:03.461Z,1003.36
2022-10-14T08:49:47.308Z,1003.26
2022-10-14T08:50:28.522Z,1003.31
2022-10-14T08:51:10.356Z,1003.29
2022-10-14T08:51:51.083Z,1003.32
2022-10-14T08:52:35.051Z,1003.26
2022-10-14T08:53:12.086Z,1003.24
2022-10-14T08:53:52.634Z,1003.26
2022-10-14T08:54:33.931Z,1003.15
2022-10-14T08:55:13.822Z,1003.23
2022-10-14T08:55:54.393Z,1003.22
2022-10-14T08:56:35.136Z,1003.21
2022-10-14T08:57:15.538Z,1003.24
2022-10-14T08:57:56.001Z,1003.26
2022-10-14T08:58:36.508Z,1003.2
2022-10-14T08:59:18.075Z,1003.2
2022-10-14T08:59:58.602Z,1003.24
2022-10-14T09:00:39.100Z,1003.21
2022-10-14T09:01:20.490Z,1003.17
2022-10-14T09:02:01.078Z,1003.15
2022-10-14T09:02:41.550Z,1003.19
2022-10-14T09:03:22.091Z,1003.12
2022-10-14T09:04:03.227Z,1003.17
2022-10-14T09:06:22.327Z,1003.17
2022-10-14T09:07:07.694Z,1003.12
2022-10-14T09:07:52.661Z,1003.19
2022-10-14T09:08:35.854Z,1003.09
2022-10-14T09:09:16.952Z,1003.16
2022-10-14T09:09:58.006Z,1003.1
2022-10-14T09:10:38.925Z,1003.15
2022-10-14T09:11:20.811Z,1003.06
2022-10-14T09:12:01.974Z,1003.16
2022-10-14T09:12:43.297Z,1003.14
2022-10-14T09:13:24.472Z,1003.11
2022-10-14T09:14:05.500Z,1003.1
2022-10-14T09:17:05.185Z,1003.08
2022-10-14T09:17:45.967Z,1003.06
2022-10-14T09:18:27.000Z,1003.08
2022-10-14T09:19:08.993Z,1003.08
2022-10-14T09:19:51.062Z,1003.03
2022-10-14T09:20:32.303Z,1003.15
2022-10-14T09:21:18.640Z,1003.07
2022-10-14T09:21:54.549Z,1003.09
2022-10-14T09:22:35.700Z,1002.98
2022-10-14T09:23:16.654Z,1002.98
2022-10-14T09:23:57.924Z,1003.01
2022-10-14T09:24:39.121Z,1002.96
2022-10-14T09:25:20.172Z,1003
2022-10-14T09:26:01.651Z,1003
2022-10-14T09:26:43.101Z,1002.99
2022-10-14T09:27:24.710Z,1003
2022-10-14T09:28:06.826Z,1003.06
2022-10-14T09:28:48.672Z,1003.04
2022-10-14T09:29:29.816Z,1003.01
2022-10-14T09:30:10.903Z,1002.98
2022-10-14T09:30:52.450Z,1003.01
2022-10-14T09:33:53.703Z,1003.04
2022-10-14T09:34:34.049Z,1003.02
2022-10-14T09:35:14.411Z,1003.07
2022-10-14T09:35:54.985Z,1003.09
2022-10-14T09:36:35.407Z,1003.07
2022-10-14T09:37:15.977Z,1003.04
2022-10-14T09:37:56.483Z,1003.05
2022-10-14T09:38:37.001Z,1003.1
2022-10-14T09:39:17.562Z,1003.06
2022-10-14T09:39:58.107Z,1003.06
2022-10-14T09:40:38.971Z,1003.09
2022-10-14T09:41:19.410Z,1003.06
2022-10-14T09:42:00.076Z,1003.04
2022-10-14T09:42:40.762Z,1003.06
2022-10-14T09:43:21.301Z,1003.07
2022-10-14T09:44:02.061Z,1003.04
2022-10-14T09:44:42.632Z,1003.07
2022-10-14T09:45:23.189Z,1003.03
2022-10-14T09:46:03.755Z,1003.01
2022-10-14T09:46:44.915Z,1003.05
2022-10-14T09:47:25.728Z,1003.04
2022-10-14T09:48:06.060Z,1003.03
2022-10-14T09:48:46.536Z,1003.02
2022-10-14T09:49:27.279Z,1003.06
2022-10-14T09:50:07.785Z,1003.05
2022-10-14T09:50:50.079Z,1003.02
2022-10-14T09:51:30.685Z,1003.03
2022-10-14T09:52:11.537Z,1003.03
2022-10-14T09:52:52.107Z,1003.05
2022-10-14T09:53:32.633Z,1002.99
2022-10-14T09:54:13.385Z,1003.02
2022-10-14T09:54:59.593Z,1002.99
2022-10-14T09:55:42.106Z,1003
2022-10-14T09:56:22.551Z,1002.97
2022-10-14T09:57:03.197Z,1002.96
2022-10-14T09:57:43.755Z,1002.92
2022-10-14T09:58:24.269Z,1002.91
2022-10-14T09:59:04.761Z,1002.89
2022-10-14T09:59:45.409Z,1002.86
2022-10-14T10:00:25.845Z,1002.9
2022-10-14T10:01:07.753Z,1002.8
2022-10-14T10:01:48.466Z,1002.84
2022-10-14T10:02:29.109Z,1002.86
2022-10-14T10:03:12.558Z,1002.82
2022-10-14T10:03:50.196Z,1002.83
2022-10-14T10:04:30.695Z,1002.86
2022-10-14T10:05:11.254Z,1002.81
2022-10-14T10:05:51.752Z,1002.8
2022-10-14T10:06:32.353Z,1002.81
2022-10-14T10:07:12.967Z,1002.81
2022-10-14T10:07:53.449Z,1002.79
2022-10-14T10:08:34.024Z,1002.76
2022-10-14T10:09:14.567Z,1002.76
2022-10-14T10:09:55.173Z,1002.78
2022-10-14T10:10:35.596Z,1002.77
2022-10-14T10:11:56.929Z,1002.77
2022-10-14T10:12:38.557Z,1002.75
2022-10-14T10:13:20.522Z,1002.78
2022-10-14T10:14:01.043Z,1002.8
2022-10-14T10:14:42.620Z,1002.72
2022-10-14T10:15:22.815Z,1002.74
2022-10-14T10:16:03.583Z,1002.74
2022-10-14T10:16:44.045Z,1002.79
2022-10-14T10:17:24.759Z,1002.77
2022-10-14T10:18:05.012Z,1002.73
2022-10-14T10:18:45.434Z,1002.71
2022-10-14T10:19:26.041Z,1002.7
2022-10-14T10:20:06.499Z,1002.73
2022-10-14T10:20:47.039Z,1002.7
2022-10-14T10:21:28.126Z,1002.77